メインページ
METAR-TAF:

METAR-TAF

空港 :

オスロ, ノルウェー

オスロ空港

緯度: 60-12N, 経度: 011-05E, 海抜: 208m

現時点の気象観測

当レポートは31分前の20:20(UTC)に作成
の風 7kt
気温 -4°C
湿度 80%
気圧 996 hPa
視程10km以上
高度1700ftの雲は散在している
高度22000ftの千切れ雲あり

METAR: ENGM 112020Z 01007KT 9999 SCT017 BKN220 M04/M07 Q0996 NOSIG

時間: 21:51 (20:51 UTC)

予報

予報は11日の 18時(UTC)から 12日の 18時(UTC)まで有効
北/北東の風 7kt
視程10km以上
高度800ftの曇り
11日の 18時(UTC)から 11日の 20時(UTC)まで一時的に
高度1000ftの雲は散在している
高度2000ftの千切れ雲あり
11日の 20時(UTC)から 11日の 22時(UTC)まで徐々に
高度2000ftの雲は散在している

TAF: ENGM 1118/1218 03007KT 9999 OVC008 TEMPO 1118/1120 SCT010 BKN020 BECMG 1120/1122 SCT020

4,000以上の空港の気象観測と天気予報(METAR報とTAF報)

利用可能な観測所は地図上に黄色い丸と赤い丸で示す。

丸の上にカーソルを重ねると観測所名を参照できる。

次にクリックすると気象観測と天気予報を参照できる。

マップの切り替え:黒色「×」印の緑ボタンをクリックして拡大、「-」印の緑ボタンをクリックして縮小、緑色の三角印をクリックして隣りの地図に切り替え


METAR-TAF: